createdAt,value
2019-04-28T00:02:11.947Z,100289.00
2019-04-28T00:04:45.270Z,100290.00
2019-04-28T00:07:18.100Z,100289.00
2019-04-28T00:09:51.205Z,100291.00
2019-04-28T00:12:24.478Z,100297.00
2019-04-28T00:14:57.303Z,100292.00
2019-04-28T00:17:30.927Z,100291.00
2019-04-28T00:20:06.617Z,100289.00
2019-04-28T00:22:54.528Z,100288.00
2019-04-28T00:25:31.198Z,100288.00
2019-04-28T00:28:04.157Z,100294.00
2019-04-28T00:30:37.072Z,100287.00
2019-04-28T00:33:11.677Z,100294.00
2019-04-28T00:35:44.657Z,100284.00
2019-04-28T00:38:17.511Z,100293.00
2019-04-28T00:40:51.032Z,100294.00
2019-04-28T00:43:25.071Z,100296.00
2019-04-28T00:45:57.870Z,100292.00
2019-04-28T00:48:31.716Z,100294.00
2019-04-28T00:51:04.506Z,100297.00
2019-04-28T00:53:37.386Z,100296.00
2019-04-28T00:56:12.114Z,100288.00
2019-04-28T00:58:45.034Z,100299.00
2019-04-28T01:01:24.711Z,100301.00
2019-04-28T01:03:57.541Z,100303.00
2019-04-28T01:06:32.140Z,100304.00
2019-04-28T01:09:07.179Z,100305.00
2019-04-28T01:11:41.893Z,100308.00
2019-04-28T01:14:14.696Z,100300.00
2019-04-28T01:17:11.240Z,100299.00
2019-04-28T01:19:49.860Z,100298.00
2019-04-28T01:22:22.426Z,100297.00
2019-04-28T01:24:55.236Z,100295.00
2019-04-28T01:27:47.700Z,100294.00
2019-04-28T01:30:35.079Z,100302.00
2019-04-28T01:33:27.351Z,100299.00
2019-04-28T01:36:00.532Z,100295.00
2019-04-28T01:38:34.634Z,100297.00
2019-04-28T01:41:07.433Z,100303.00
2019-04-28T01:43:41.747Z,100299.00
2019-04-28T01:46:14.667Z,100294.00
2019-04-28T01:48:47.492Z,100298.00
2019-04-28T01:51:20.895Z,100300.00
2019-04-28T01:53:55.529Z,100299.00
2019-04-28T01:56:30.275Z,100298.00
2019-04-28T01:59:03.364Z,100299.00
2019-04-28T02:01:36.183Z,100306.00
2019-04-28T02:04:10.120Z,100303.00
2019-04-28T02:06:43.136Z,100313.00
2019-04-28T02:09:15.940Z,100321.00
2019-04-28T02:11:49.760Z,100322.00
2019-04-28T02:14:22.813Z,100313.00
2019-04-28T02:16:55.633Z,100319.00
2019-04-28T02:19:32.687Z,100318.00
2019-04-28T02:22:11.153Z,100307.00
2019-04-28T02:24:43.953Z,100317.00
2019-04-28T02:27:16.962Z,100315.00
2019-04-28T02:29:49.995Z,100319.00
2019-04-28T02:32:24.385Z,100325.00
2019-04-28T02:34:57.395Z,100315.00
2019-04-28T02:37:30.751Z,100314.00
2019-04-28T02:40:04.882Z,100330.00
2019-04-28T02:42:40.704Z,100319.00
2019-04-28T02:45:21.519Z,100330.00
2019-04-28T02:47:57.324Z,100315.00
2019-04-28T02:50:55.169Z,100314.00
2019-04-28T02:53:33.152Z,100307.00
2019-04-28T02:56:04.617Z,100317.00
2019-04-28T02:58:41.325Z,100314.00
2019-04-28T03:01:24.920Z,100320.00
2019-04-28T03:03:50.471Z,100320.00
2019-04-28T03:06:22.967Z,100314.00
2019-04-28T03:08:56.966Z,100318.00
2019-04-28T03:11:31.497Z,100318.00
2019-04-28T03:14:04.538Z,100331.00
2019-04-28T03:16:40.978Z,100316.00
2019-04-28T03:19:13.233Z,100319.00
2019-04-28T03:21:46.068Z,100319.00
2019-04-28T03:24:21.246Z,100331.00
2019-04-28T03:27:07.631Z,100331.00
2019-04-28T03:29:50.384Z,100332.00
2019-04-28T03:32:44.609Z,100331.00
2019-04-28T03:35:05.349Z,100321.00
2019-04-28T03:37:41.164Z,100323.00
2019-04-28T03:40:13.079Z,100323.00
2019-04-28T03:42:46.141Z,100325.00
2019-04-28T03:45:25.347Z,100323.00
2019-04-28T03:48:00.312Z,100332.00
2019-04-28T03:50:32.941Z,100323.00
2019-04-28T03:53:05.776Z,100333.00
2019-04-28T03:55:41.341Z,100326.00
2019-04-28T03:58:13.301Z,100321.00
2019-04-28T04:00:46.098Z,100332.00
2019-04-28T04:03:21.154Z,100322.00
2019-04-28T04:05:53.650Z,100337.00
2019-04-28T04:08:26.472Z,100336.00
2019-04-28T04:11:31.296Z,100345.00
2019-04-28T04:14:14.219Z,100342.00
2019-04-28T04:16:52.925Z,100343.00
2019-04-28T04:19:25.768Z,100355.00
2019-04-28T04:22:00.380Z,100354.00
2019-04-28T04:24:33.322Z,100356.00
2019-04-28T04:27:06.135Z,100354.00
2019-04-28T04:29:43.286Z,100357.00
2019-04-28T04:32:20.888Z,100354.00
2019-04-28T04:34:50.557Z,100359.00
2019-04-28T04:37:23.243Z,100359.00
2019-04-28T04:39:56.098Z,100360.00
2019-04-28T04:42:30.759Z,100370.00
2019-04-28T04:45:03.823Z,100361.00
2019-04-28T04:47:36.784Z,100366.00
2019-04-28T04:50:11.342Z,100365.00
2019-04-28T04:52:44.646Z,100366.00
2019-04-28T04:55:17.462Z,100375.00
2019-04-28T04:57:50.771Z,100379.00
2019-04-28T05:00:43.545Z,100384.00
2019-04-28T05:03:21.290Z,100385.00
2019-04-28T05:05:54.219Z,100379.00
2019-04-28T05:08:27.026Z,100384.00
2019-04-28T05:11:00.061Z,100379.00
2019-04-28T05:13:32.951Z,100382.00
2019-04-28T05:16:05.764Z,100394.00
2019-04-28T05:18:39.369Z,100390.00
2019-04-28T05:21:13.322Z,100397.00
2019-04-28T05:24:09.212Z,100395.00
2019-04-28T05:26:47.488Z,100400.00
2019-04-28T05:29:21.829Z,100391.00
2019-04-28T05:31:50.628Z,100390.00
2019-04-28T05:34:25.175Z,100395.00
2019-04-28T05:36:57.977Z,100417.00
2019-04-28T05:39:30.794Z,100415.00
2019-04-28T05:42:03.605Z,100413.00
2019-04-28T05:44:37.772Z,100414.00
2019-04-28T05:47:11.805Z,100428.00
2019-04-28T05:50:07.233Z,100429.00
2019-04-28T05:53:00.551Z,100427.00
2019-04-28T05:55:56.720Z,100421.00
2019-04-28T05:58:37.571Z,100418.00
2019-04-28T06:01:36.372Z,100416.00
2019-04-28T06:04:09.620Z,100425.00
2019-04-28T06:06:45.845Z,100425.00
2019-04-28T06:09:24.980Z,100423.00
2019-04-28T06:12:00.019Z,100433.00
2019-04-28T06:14:32.562Z,100418.00
2019-04-28T06:17:05.421Z,100426.00
2019-04-28T06:19:40.166Z,100430.00
2019-04-28T06:22:13.001Z,100431.00
2019-04-28T06:24:45.836Z,100422.00
2019-04-28T06:27:18.673Z,100429.00
2019-04-28T06:29:51.516Z,100430.00
2019-04-28T06:32:24.329Z,100427.00
2019-04-28T06:34:57.158Z,100421.00
2019-04-28T06:37:30.008Z,100424.00
2019-04-28T06:40:03.046Z,100438.00
2019-04-28T06:42:35.931Z,100437.00
2019-04-28T06:45:08.837Z,100429.00
2019-04-28T06:47:41.677Z,100427.00
2019-04-28T06:50:14.904Z,100436.00
2019-04-28T06:52:47.736Z,100436.00
2019-04-28T06:55:20.588Z,100442.00
2019-04-28T06:57:53.426Z,100442.00
2019-04-28T07:00:26.249Z,100444.00
2019-04-28T07:02:59.154Z,100442.00
2019-04-28T07:05:31.967Z,100443.00
2019-04-28T07:08:04.807Z,100434.00
2019-04-28T07:10:37.781Z,100438.00
2019-04-28T07:13:10.606Z,100439.00
2019-04-28T07:15:43.433Z,100437.00
2019-04-28T07:18:16.292Z,100442.00
2019-04-28T07:21:17.473Z,100448.00
2019-04-28T07:23:50.334Z,100449.00
2019-04-28T07:26:23.177Z,100446.00
2019-04-28T07:28:57.653Z,100444.00
2019-04-28T07:31:30.636Z,100448.00
2019-04-28T07:34:03.571Z,100442.00
2019-04-28T07:36:36.377Z,100451.00
2019-04-28T07:39:09.347Z,100449.00
2019-04-28T07:41:42.871Z,100447.00
2019-04-28T07:44:15.859Z,100457.00
2019-04-28T07:46:48.773Z,100460.00
2019-04-28T07:49:21.603Z,100470.00
2019-04-28T07:52:02.428Z,100463.00
2019-04-28T07:54:35.372Z,100464.00
2019-04-28T07:57:08.213Z,100461.00
2019-04-28T07:59:41.065Z,100451.00
2019-04-28T08:02:14.014Z,100474.00
2019-04-28T08:04:46.836Z,100468.00
2019-04-28T08:07:19.624Z,100469.00
2019-04-28T08:09:52.489Z,100496.00
2019-04-28T08:12:25.338Z,100474.00
2019-04-28T08:14:58.160Z,100464.00
2019-04-28T08:17:30.988Z,100486.00
2019-04-28T08:20:05.784Z,100466.00
2019-04-28T08:22:38.786Z,100478.00
2019-04-28T08:25:12.051Z,100473.00
2019-04-28T08:27:44.884Z,100477.00
2019-04-28T08:30:17.743Z,100484.00
2019-04-28T08:33:16.298Z,100483.00
2019-04-28T08:35:49.118Z,100482.00
2019-04-28T08:38:21.946Z,100478.00
2019-04-28T08:40:54.806Z,100481.00
2019-04-28T08:43:27.636Z,100476.00
2019-04-28T08:46:03.642Z,100471.00
2019-04-28T08:48:36.543Z,100469.00
2019-04-28T08:51:09.568Z,100472.00
2019-04-28T08:53:42.414Z,100474.00
2019-04-28T08:56:15.234Z,100474.00
2019-04-28T08:58:48.132Z,100474.00
2019-04-28T09:01:20.986Z,100479.00
2019-04-28T09:03:53.889Z,100479.00
2019-04-28T09:06:26.744Z,100479.00
2019-04-28T09:08:59.621Z,100478.00
2019-04-28T09:11:32.484Z,100468.00
2019-04-28T09:14:05.337Z,100474.00
2019-04-28T09:16:38.303Z,100466.00
2019-04-28T09:19:11.141Z,100459.00
2019-04-28T09:21:44.120Z,100471.00
2019-04-28T09:24:16.985Z,100476.00
2019-04-28T09:26:49.859Z,100472.00
2019-04-28T09:29:22.764Z,100484.00
2019-04-28T09:31:55.757Z,100484.00
2019-04-28T09:34:28.810Z,100491.00
2019-04-28T09:37:01.652Z,100501.00
2019-04-28T09:39:55.208Z,100489.00
2019-04-28T09:42:44.285Z,100482.00
2019-04-28T09:45:25.693Z,100479.00
2019-04-28T09:47:58.656Z,100476.00
2019-04-28T09:50:31.560Z,100465.00
2019-04-28T09:53:04.439Z,100476.00
2019-04-28T09:55:37.289Z,100481.00
2019-04-28T09:58:10.421Z,100495.00
2019-04-28T10:00:44.711Z,100488.00
2019-04-28T10:03:17.564Z,100490.00
2019-04-28T10:05:50.432Z,100472.00
2019-04-28T10:08:23.319Z,100476.00
2019-04-28T10:10:56.207Z,100483.00
2019-04-28T10:13:29.216Z,100491.00
2019-04-28T10:16:04.736Z,100476.00
2019-04-28T10:18:37.612Z,100486.00
2019-04-28T10:21:10.592Z,100482.00
2019-04-28T10:23:45.183Z,100469.00
2019-04-28T10:26:18.188Z,100485.00
2019-04-28T10:28:51.072Z,100476.00
2019-04-28T10:31:24.084Z,100478.00
2019-04-28T10:34:03.033Z,100478.00
2019-04-28T10:36:36.006Z,100474.00
2019-04-28T10:39:26.133Z,100467.00
2019-04-28T10:41:58.956Z,100468.00
2019-04-28T10:44:33.878Z,100469.00
2019-04-28T10:47:06.977Z,100474.00
2019-04-28T10:49:39.865Z,100470.00
2019-04-28T10:52:12.738Z,100455.00
2019-04-28T10:54:45.603Z,100462.00
2019-04-28T10:57:18.464Z,100461.00
2019-04-28T10:59:51.327Z,100463.00
2019-04-28T11:02:24.267Z,100460.00
2019-04-28T11:05:20.339Z,100455.00
2019-04-28T11:07:54.526Z,100477.00
2019-04-28T11:10:27.538Z,100482.00
2019-04-28T11:13:00.372Z,100475.00
2019-04-28T11:15:35.738Z,100459.00
2019-04-28T11:18:09.668Z,100467.00
2019-04-28T11:20:42.580Z,100466.00
2019-04-28T11:23:15.536Z,100464.00
2019-04-28T11:25:48.530Z,100458.00
2019-04-28T11:28:21.630Z,100452.00
2019-04-28T11:30:54.483Z,100471.00
2019-04-28T11:33:42.794Z,100476.00
2019-04-28T11:36:17.930Z,100481.00
2019-04-28T11:38:50.871Z,100477.00
2019-04-28T11:41:23.876Z,100472.00
2019-04-28T11:43:56.773Z,100480.00
2019-04-28T11:46:29.784Z,100487.00
2019-04-28T11:49:04.000Z,100483.00
2019-04-28T11:51:36.928Z,100483.00
2019-04-28T11:54:09.850Z,100486.00
2019-04-28T11:56:42.731Z,100476.00
2019-04-28T11:59:15.587Z,100470.00
2019-04-28T12:01:48.602Z,100474.00
2019-04-28T12:04:21.465Z,100476.00
2019-04-28T12:06:54.358Z,100484.00
2019-04-28T12:09:41.226Z,100475.00
2019-04-28T12:12:24.036Z,100493.00
2019-04-28T12:15:07.018Z,100473.00
2019-04-28T12:17:59.580Z,100480.00
2019-04-28T12:20:33.053Z,100479.00
2019-04-28T12:23:06.051Z,100485.00
2019-04-28T12:25:38.922Z,100476.00
2019-04-28T12:28:11.822Z,100469.00
2019-04-28T12:30:44.669Z,100474.00
2019-04-28T12:33:17.523Z,100473.00
2019-04-28T12:35:50.412Z,100479.00
2019-04-28T12:38:23.388Z,100486.00
2019-04-28T12:40:56.273Z,100488.00
2019-04-28T12:43:29.124Z,100490.00
2019-04-28T12:46:03.233Z,100475.00
2019-04-28T12:48:36.081Z,100475.00
2019-04-28T12:51:09.205Z,100480.00
2019-04-28T12:53:42.617Z,100486.00
2019-04-28T12:56:17.317Z,100481.00
2019-04-28T12:58:52.142Z,100486.00
2019-04-28T13:01:32.796Z,100481.00
2019-04-28T13:04:31.289Z,100477.00
2019-04-28T13:07:05.475Z,100474.00
2019-04-28T13:09:38.342Z,100483.00
2019-04-28T13:12:11.224Z,100488.00
2019-04-28T13:14:45.245Z,100480.00
2019-04-28T13:17:18.097Z,100481.00
2019-04-28T13:19:51.037Z,100482.00
2019-04-28T13:22:23.929Z,100483.00
2019-04-28T13:24:56.817Z,100474.00
2019-04-28T13:27:29.680Z,100461.00
2019-04-28T13:30:03.776Z,100476.00
2019-04-28T13:32:37.007Z,100454.00
2019-04-28T13:35:10.128Z,100464.00
2019-04-28T13:37:43.241Z,100455.00
2019-04-28T13:40:22.671Z,100452.00
2019-04-28T13:42:55.552Z,100447.00
2019-04-28T13:45:29.474Z,100453.00
2019-04-28T13:48:02.468Z,100456.00
2019-04-28T13:50:38.659Z,100456.00
2019-04-28T13:53:11.568Z,100451.00
2019-04-28T13:55:58.255Z,100451.00
2019-04-28T13:58:41.017Z,100453.00
2019-04-28T14:01:31.946Z,100454.00
2019-04-28T14:04:24.533Z,100454.00
2019-04-28T14:06:59.633Z,100448.00
2019-04-28T14:09:32.534Z,100441.00
2019-04-28T14:12:05.442Z,100441.00
2019-04-28T14:14:38.448Z,100448.00
2019-04-28T14:17:11.340Z,100453.00
2019-04-28T14:19:44.234Z,100450.00
2019-04-28T14:22:17.113Z,100453.00
2019-04-28T14:24:50.054Z,100448.00
2019-04-28T14:27:22.927Z,100448.00
2019-04-28T14:29:55.802Z,100444.00
2019-04-28T14:32:28.658Z,100443.00
2019-04-28T14:35:02.975Z,100452.00
2019-04-28T14:37:36.927Z,100453.00
2019-04-28T14:40:10.194Z,100454.00
2019-04-28T14:42:43.114Z,100442.00
2019-04-28T14:45:16.435Z,100432.00
2019-04-28T14:47:49.323Z,100433.00
2019-04-28T14:50:22.203Z,100434.00
2019-04-28T14:52:55.123Z,100423.00
2019-04-28T14:55:27.985Z,100428.00
2019-04-28T14:58:00.974Z,100428.00
2019-04-28T15:00:38.837Z,100436.00
2019-04-28T15:03:13.512Z,100429.00
2019-04-28T15:06:04.001Z,100426.00
2019-04-28T15:08:45.424Z,100430.00
2019-04-28T15:11:24.584Z,100431.00
2019-04-28T15:13:57.456Z,100436.00
2019-04-28T15:16:30.332Z,100444.00
2019-04-28T15:19:03.324Z,100442.00
2019-04-28T15:21:36.304Z,100440.00
2019-04-28T15:24:09.396Z,100439.00
2019-04-28T15:26:42.289Z,100431.00
2019-04-28T15:29:15.155Z,100436.00
2019-04-28T15:31:48.056Z,100442.00
2019-04-28T15:34:20.930Z,100429.00
2019-04-28T15:36:53.783Z,100444.00
2019-04-28T15:39:26.618Z,100443.00
2019-04-28T15:41:59.513Z,100432.00
2019-04-28T15:44:32.417Z,100432.00
2019-04-28T15:47:05.397Z,100437.00
2019-04-28T15:49:38.254Z,100427.00
2019-04-28T15:52:11.134Z,100437.00
2019-04-28T15:54:43.983Z,100444.00
2019-04-28T15:57:16.858Z,100440.00
2019-04-28T15:59:49.693Z,100444.00
2019-04-28T16:02:22.560Z,100437.00
2019-04-28T16:04:55.378Z,100449.00
2019-04-28T16:07:28.248Z,100455.00
2019-04-28T16:10:01.119Z,100459.00
2019-04-28T16:12:34.028Z,100458.00
2019-04-28T16:15:07.545Z,100458.00
2019-04-28T16:17:40.555Z,100461.00
2019-04-28T16:20:13.831Z,100457.00
2019-04-28T16:22:46.648Z,100460.00
2019-04-28T16:25:19.487Z,100469.00
2019-04-28T16:27:52.420Z,100464.00
2019-04-28T16:30:25.275Z,100471.00
2019-04-28T16:32:58.229Z,100473.00
2019-04-28T16:35:31.119Z,100466.00
2019-04-28T16:38:04.023Z,100474.00
2019-04-28T16:40:40.683Z,100469.00
2019-04-28T16:43:18.483Z,100477.00
2019-04-28T16:45:51.471Z,100476.00
2019-04-28T16:48:24.357Z,100477.00
2019-04-28T16:50:57.248Z,100477.00
2019-04-28T16:53:30.131Z,100481.00
2019-04-28T16:56:40.735Z,100484.00
2019-04-28T16:59:32.268Z,100480.00
2019-04-28T17:02:26.656Z,100477.00
2019-04-28T17:04:59.492Z,100479.00
2019-04-28T17:07:32.366Z,100482.00
2019-04-28T17:10:05.928Z,100485.00
2019-04-28T17:12:38.900Z,100476.00
2019-04-28T17:15:12.071Z,100474.00
2019-04-28T17:17:47.260Z,100476.00
2019-04-28T17:20:21.139Z,100485.00
2019-04-28T17:22:54.182Z,100489.00
2019-04-28T17:25:27.110Z,100493.00
2019-04-28T17:28:00.030Z,100493.00
2019-04-28T17:30:33.038Z,100489.00
2019-04-28T17:33:05.915Z,100495.00
2019-04-28T17:35:38.993Z,100494.00
2019-04-28T17:38:11.863Z,100496.00
2019-04-28T17:40:45.178Z,100493.00
2019-04-28T17:43:18.091Z,100485.00
2019-04-28T17:45:51.072Z,100490.00
2019-04-28T17:48:31.871Z,100491.00
2019-04-28T17:51:04.699Z,100502.00
2019-04-28T17:53:37.556Z,100504.00
2019-04-28T17:56:11.432Z,100508.00
2019-04-28T17:58:44.393Z,100512.00
2019-04-28T18:01:35.451Z,100520.00
2019-04-28T18:04:23.446Z,100518.00
2019-04-28T18:07:00.801Z,100516.00
2019-04-28T18:09:33.803Z,100521.00
2019-04-28T18:12:06.906Z,100530.00
2019-04-28T18:14:41.663Z,100528.00
2019-04-28T18:17:49.538Z,100528.00
2019-04-28T18:20:23.668Z,100538.00
2019-04-28T18:22:56.754Z,100536.00
2019-04-28T18:25:29.658Z,100540.00
2019-04-28T18:28:02.696Z,100531.00
2019-04-28T18:30:39.800Z,100543.00
2019-04-28T18:33:31.412Z,100550.00
2019-04-28T18:36:09.062Z,100546.00
2019-04-28T18:38:54.214Z,100554.00
2019-04-28T18:41:43.078Z,100562.00
2019-04-28T18:44:18.750Z,100573.00
2019-04-28T18:46:51.604Z,100569.00
2019-04-28T18:49:24.594Z,100578.00
2019-04-28T18:51:57.473Z,100578.00
2019-04-28T18:54:30.605Z,100577.00
2019-04-28T18:57:03.594Z,100589.00
2019-04-28T18:59:36.605Z,100581.00
2019-04-28T19:02:24.509Z,100604.00
2019-04-28T19:04:57.484Z,100590.00
2019-04-28T19:07:51.669Z,100611.00
2019-04-28T19:10:53.063Z,100608.00
2019-04-28T19:13:29.702Z,100617.00
2019-04-28T19:16:22.525Z,100617.00
2019-04-28T19:18:58.786Z,100607.00
2019-04-28T19:21:31.790Z,100620.00
2019-04-28T19:24:04.880Z,100624.00
2019-04-28T19:26:37.770Z,100626.00
2019-04-28T19:29:10.776Z,100620.00
2019-04-28T19:31:43.632Z,100624.00
2019-04-28T19:34:16.564Z,100625.00
2019-04-28T19:36:49.446Z,100627.00
2019-04-28T19:39:22.468Z,100628.00
2019-04-28T19:41:55.537Z,100626.00
2019-04-28T19:44:28.527Z,100634.00
2019-04-28T19:47:01.385Z,100626.00
2019-04-28T19:49:34.387Z,100627.00
2019-04-28T19:52:07.317Z,100626.00
2019-04-28T19:55:00.034Z,100623.00
2019-04-28T19:57:40.254Z,100633.00
2019-04-28T20:00:25.846Z,100639.00
2019-04-28T20:03:00.822Z,100634.00
2019-04-28T20:05:33.703Z,100641.00
2019-04-28T20:08:06.705Z,100636.00
2019-04-28T20:10:39.584Z,100631.00
2019-04-28T20:13:12.463Z,100633.00
2019-04-28T20:15:45.373Z,100644.00
2019-04-28T20:18:19.831Z,100644.00
2019-04-28T20:20:53.538Z,100633.00
2019-04-28T20:23:26.439Z,100629.00
2019-04-28T20:25:59.525Z,100637.00
2019-04-28T20:28:33.315Z,100639.00
2019-04-28T20:31:06.242Z,100642.00
2019-04-28T20:33:39.213Z,100651.00
2019-04-28T20:36:20.701Z,100653.00
2019-04-28T20:38:57.484Z,100659.00
2019-04-28T20:41:30.342Z,100667.00
2019-04-28T20:44:03.230Z,100669.00
2019-04-28T20:46:36.207Z,100674.00
2019-04-28T20:49:09.314Z,100673.00
2019-04-28T20:51:42.346Z,100664.00
2019-04-28T20:54:15.327Z,100670.00
2019-04-28T20:56:48.191Z,100675.00
2019-04-28T20:59:21.064Z,100674.00
2019-04-28T21:01:53.975Z,100674.00
2019-04-28T21:04:27.022Z,100679.00
2019-04-28T21:06:59.859Z,100663.00
2019-04-28T21:09:32.725Z,100677.00
2019-04-28T21:12:05.643Z,100684.00
2019-04-28T21:14:38.482Z,100692.00
2019-04-28T21:17:11.370Z,100681.00
2019-04-28T21:19:44.226Z,100682.00
2019-04-28T21:22:17.127Z,100679.00
2019-04-28T21:24:50.996Z,100679.00
2019-04-28T21:27:23.925Z,100682.00
2019-04-28T21:29:56.752Z,100679.00
2019-04-28T21:32:29.738Z,100679.00
2019-04-28T21:35:02.579Z,100672.00
2019-04-28T21:37:35.449Z,100682.00
2019-04-28T21:40:10.097Z,100679.00
2019-04-28T21:42:58.771Z,100683.00
2019-04-28T21:45:50.581Z,100683.00
2019-04-28T21:48:38.766Z,100680.00
2019-04-28T21:51:12.311Z,100688.00
2019-04-28T21:53:45.279Z,100682.00
2019-04-28T21:56:18.142Z,100676.00
2019-04-28T21:58:50.965Z,100676.00
2019-04-28T22:01:24.232Z,100685.00
2019-04-28T22:03:57.142Z,100686.00
2019-04-28T22:06:29.990Z,100698.00
2019-04-28T22:09:04.708Z,100688.00
2019-04-28T22:11:39.490Z,100697.00
2019-04-28T22:14:12.325Z,100695.00
2019-04-28T22:16:45.185Z,100694.00
2019-04-28T22:19:19.334Z,100708.00
2019-04-28T22:21:52.219Z,100699.00
2019-04-28T22:24:39.163Z,100707.00
2019-04-28T22:27:13.859Z,100710.00
2019-04-28T22:29:46.733Z,100707.00
2019-04-28T22:32:19.563Z,100713.00
2019-04-28T22:34:52.405Z,100717.00
2019-04-28T22:37:26.409Z,100708.00
2019-04-28T22:39:59.212Z,100708.00
2019-04-28T22:42:32.075Z,100718.00
2019-04-28T22:45:06.107Z,100727.00
2019-04-28T22:47:39.075Z,100722.00
2019-04-28T22:50:38.143Z,100721.00
2019-04-28T22:53:11.592Z,100733.00
2019-04-28T22:55:56.178Z,100745.00
2019-04-28T22:58:48.656Z,100738.00
2019-04-28T23:01:28.496Z,100730.00
2019-04-28T23:04:06.943Z,100725.00
2019-04-28T23:06:40.007Z,100737.00
2019-04-28T23:09:16.181Z,100742.00
2019-04-28T23:11:48.993Z,100746.00
2019-04-28T23:14:21.841Z,100738.00
2019-04-28T23:16:54.743Z,100745.00
2019-04-28T23:19:30.640Z,100747.00
2019-04-28T23:22:12.667Z,100748.00
2019-04-28T23:24:45.458Z,100734.00
2019-04-28T23:27:18.291Z,100739.00
2019-04-28T23:29:51.138Z,100736.00
2019-04-28T23:32:23.993Z,100748.00
2019-04-28T23:34:56.864Z,100750.00
2019-04-28T23:37:29.777Z,100743.00
2019-04-28T23:40:03.807Z,100746.00
2019-04-28T23:42:52.352Z,100738.00
2019-04-28T23:45:25.179Z,100741.00
2019-04-28T23:47:59.099Z,100743.00
2019-04-28T23:50:45.116Z,100749.00
2019-04-28T23:53:20.063Z,100749.00
2019-04-28T23:55:52.846Z,100735.00
2019-04-28T23:58:25.728Z,100743.00
